createdAt,value
2022-10-25T00:00:11.705Z,10.92
2022-10-25T00:01:11.763Z,10.88
2022-10-25T00:02:11.822Z,10.84
2022-10-25T00:03:11.665Z,10.80
2022-10-25T00:04:11.728Z,10.76
2022-10-25T00:05:11.643Z,10.71
2022-10-25T00:06:11.615Z,10.67
2022-10-25T00:07:11.604Z,10.63
2022-10-25T00:08:11.591Z,10.60
2022-10-25T00:09:11.583Z,10.57
2022-10-25T00:10:11.569Z,10.55
2022-10-25T00:11:11.553Z,10.53
2022-10-25T00:12:11.669Z,10.51
2022-10-25T00:13:11.540Z,10.50
2022-10-25T00:14:11.512Z,10.50
2022-10-25T00:15:11.509Z,10.50
2022-10-25T00:16:11.510Z,10.50
2022-10-25T00:17:11.478Z,10.50
2022-10-25T00:18:11.482Z,10.51
2022-10-25T00:19:11.455Z,10.51
2022-10-25T00:20:11.445Z,10.52
2022-10-25T00:21:11.428Z,10.52
2022-10-25T00:22:11.411Z,10.53
2022-10-25T00:23:11.397Z,10.53
2022-10-25T00:24:11.384Z,10.54
2022-10-25T00:25:11.385Z,10.54
2022-10-25T00:26:11.358Z,10.55
2022-10-25T00:27:11.360Z,10.56
2022-10-25T00:28:11.346Z,10.58
2022-10-25T00:29:11.403Z,10.59
2022-10-25T00:30:11.306Z,10.59
2022-10-25T00:31:11.298Z,10.58
2022-10-25T00:32:11.289Z,10.56
2022-10-25T00:33:11.274Z,10.54
2022-10-25T00:34:11.260Z,10.52
2022-10-25T00:35:11.255Z,10.50
2022-10-25T00:36:11.231Z,10.48
2022-10-25T00:37:11.229Z,10.46
2022-10-25T00:38:11.199Z,10.44
2022-10-25T00:39:11.196Z,10.44
2022-10-25T00:40:11.188Z,10.44
2022-10-25T00:41:11.168Z,10.46
2022-10-25T00:42:11.147Z,10.47
2022-10-25T00:43:11.138Z,10.50
2022-10-25T00:44:11.125Z,10.52
2022-10-25T00:45:11.131Z,10.55
2022-10-25T00:46:11.102Z,10.58
2022-10-25T00:47:19.370Z,10.62
2022-10-25T00:48:11.134Z,10.64
2022-10-25T00:49:11.134Z,10.66
2022-10-25T00:50:11.081Z,10.68
2022-10-25T00:51:11.038Z,10.70
2022-10-25T00:52:11.049Z,10.72
2022-10-25T00:53:11.088Z,10.74
2022-10-25T00:54:11.039Z,10.77
2022-10-25T00:55:10.995Z,10.79
2022-10-25T00:56:11.026Z,10.81
2022-10-25T00:57:10.952Z,10.82
2022-10-25T00:58:11.003Z,10.83
2022-10-25T00:59:10.926Z,10.83
2022-10-25T01:00:10.941Z,10.83
2022-10-25T01:01:10.976Z,10.82
2022-10-25T01:02:10.987Z,10.80
2022-10-25T01:03:10.882Z,10.78
2022-10-25T01:04:10.873Z,10.76
2022-10-25T01:05:10.870Z,10.75
2022-10-25T01:06:10.918Z,10.75
2022-10-25T01:07:10.824Z,10.75
2022-10-25T01:08:10.811Z,10.76
2022-10-25T01:09:10.805Z,10.78
2022-10-25T01:10:10.804Z,10.80
2022-10-25T01:11:10.827Z,10.82
2022-10-25T01:12:10.758Z,10.84
2022-10-25T01:13:10.777Z,10.86
2022-10-25T01:14:10.736Z,10.88
2022-10-25T01:15:10.725Z,10.91
2022-10-25T01:16:10.715Z,10.92
2022-10-25T01:17:10.734Z,10.94
2022-10-25T01:18:10.680Z,10.95
2022-10-25T01:19:10.667Z,10.96
2022-10-25T01:20:10.675Z,10.96
2022-10-25T01:21:10.647Z,10.96
2022-10-25T01:22:10.680Z,10.97
2022-10-25T01:23:10.649Z,10.97
2022-10-25T01:24:10.634Z,10.97
2022-10-25T01:25:10.605Z,10.98
2022-10-25T01:26:10.575Z,10.98
2022-10-25T01:27:10.630Z,10.97
2022-10-25T01:28:10.580Z,10.97
2022-10-25T01:29:10.545Z,10.96
2022-10-25T01:30:10.522Z,10.96
2022-10-25T01:31:10.529Z,10.95
2022-10-25T01:32:10.495Z,10.95
2022-10-25T01:33:10.576Z,10.95
2022-10-25T01:34:10.497Z,10.94
2022-10-25T01:35:10.468Z,10.91
2022-10-25T01:36:10.510Z,10.87
2022-10-25T01:37:10.486Z,10.83
2022-10-25T01:38:10.417Z,10.79
2022-10-25T01:39:10.423Z,10.75
2022-10-25T01:40:10.392Z,10.71
2022-10-25T01:41:10.411Z,10.68
2022-10-25T01:42:10.426Z,10.64
2022-10-25T01:43:10.400Z,10.60
2022-10-25T01:44:10.384Z,10.58
2022-10-25T01:45:10.337Z,10.56
2022-10-25T01:46:10.339Z,10.55
2022-10-25T01:47:10.305Z,10.54
2022-10-25T01:48:10.287Z,10.53
2022-10-25T01:49:10.316Z,10.52
2022-10-25T01:50:10.271Z,10.51
2022-10-25T01:51:10.250Z,10.49
2022-10-25T01:52:10.234Z,10.48
2022-10-25T01:53:10.278Z,10.46
2022-10-25T01:54:10.205Z,10.44
2022-10-25T01:55:10.209Z,10.43
2022-10-25T01:56:10.182Z,10.42
2022-10-25T01:57:10.215Z,10.41
2022-10-25T01:58:10.151Z,10.38
2022-10-25T01:59:10.179Z,10.33
2022-10-25T02:00:10.145Z,10.28
2022-10-25T02:01:10.328Z,10.23
2022-10-25T02:02:10.094Z,10.18
2022-10-25T02:03:10.129Z,10.14
2022-10-25T02:04:10.105Z,10.11
2022-10-25T02:05:10.081Z,10.07
2022-10-25T02:06:10.050Z,10.04
2022-10-25T02:07:10.086Z,10.01
2022-10-25T02:08:10.022Z,9.99
2022-10-25T02:09:10.084Z,9.97
2022-10-25T02:10:09.999Z,9.95
2022-10-25T02:11:10.021Z,9.94
2022-10-25T02:12:09.997Z,9.93
2022-10-25T02:13:09.950Z,9.93
2022-10-25T02:14:09.975Z,9.93
2022-10-25T02:15:09.931Z,9.94
2022-10-25T02:16:09.927Z,9.94
2022-10-25T02:17:09.906Z,9.95
2022-10-25T02:18:09.893Z,9.96
2022-10-25T02:19:09.911Z,9.97
2022-10-25T02:20:09.886Z,9.98
2022-10-25T02:21:09.856Z,9.99
2022-10-25T02:22:09.840Z,10.00
2022-10-25T02:23:09.856Z,10.01
2022-10-25T02:24:09.814Z,10.02
2022-10-25T02:25:09.809Z,10.02
2022-10-25T02:26:09.781Z,10.03
2022-10-25T02:27:09.776Z,10.03
2022-10-25T02:28:09.752Z,10.04
2022-10-25T02:29:09.761Z,10.05
2022-10-25T02:30:09.727Z,10.06
2022-10-25T02:31:09.724Z,10.07
2022-10-25T02:32:09.737Z,10.09
2022-10-25T02:33:09.708Z,10.10
2022-10-25T02:34:09.715Z,10.11
2022-10-25T02:35:09.709Z,10.13
2022-10-25T02:36:09.674Z,10.14
2022-10-25T02:37:09.659Z,10.15
2022-10-25T02:38:09.615Z,10.16
2022-10-25T02:39:09.662Z,10.17
2022-10-25T02:40:09.602Z,10.18
2022-10-25T02:41:09.586Z,10.19
2022-10-25T02:42:09.599Z,10.20
2022-10-25T02:43:09.548Z,10.21
2022-10-25T02:44:09.546Z,10.22
2022-10-25T02:45:09.524Z,10.23
2022-10-25T02:46:09.542Z,10.25
2022-10-25T02:47:09.507Z,10.26
2022-10-25T02:48:09.494Z,10.28
2022-10-25T02:49:09.518Z,10.30
2022-10-25T02:50:09.469Z,10.31
2022-10-25T02:51:09.443Z,10.33
2022-10-25T02:52:09.435Z,10.34
2022-10-25T02:53:09.426Z,10.35
2022-10-25T02:54:09.437Z,10.37
2022-10-25T02:55:09.402Z,10.38
2022-10-25T02:56:09.389Z,10.39
2022-10-25T02:57:09.371Z,10.40
2022-10-25T02:58:09.378Z,10.41
2022-10-25T02:59:09.384Z,10.42
2022-10-25T03:00:09.406Z,10.42
2022-10-25T03:01:09.417Z,10.42
2022-10-25T03:02:09.308Z,10.42
2022-10-25T03:03:09.303Z,10.42
2022-10-25T03:04:09.312Z,10.42
2022-10-25T03:05:09.312Z,10.42
2022-10-25T03:06:09.352Z,10.42
2022-10-25T03:07:09.263Z,10.42
2022-10-25T03:08:09.256Z,10.41
2022-10-25T03:09:09.245Z,10.42
2022-10-25T03:10:09.208Z,10.42
2022-10-25T03:11:09.202Z,10.42
2022-10-25T03:12:09.193Z,10.43
2022-10-25T03:13:09.195Z,10.43
2022-10-25T03:14:09.207Z,10.44
2022-10-25T03:15:09.165Z,10.44
2022-10-25T03:16:09.151Z,10.45
2022-10-25T03:17:09.125Z,10.46
2022-10-25T03:18:09.117Z,10.47
2022-10-25T03:19:09.097Z,10.48
2022-10-25T03:20:09.097Z,10.50
2022-10-25T03:21:09.060Z,10.51
2022-10-25T03:22:09.058Z,10.52
2022-10-25T03:23:09.056Z,10.52
2022-10-25T03:24:09.077Z,10.53
2022-10-25T03:26:08.998Z,10.52
2022-10-25T03:27:08.993Z,10.52
2022-10-25T03:28:09.025Z,10.52
2022-10-25T03:29:08.960Z,10.52
2022-10-25T03:30:08.964Z,10.52
2022-10-25T03:31:08.999Z,10.53
2022-10-25T03:32:08.958Z,10.53
2022-10-25T03:33:08.904Z,10.54
2022-10-25T03:34:08.933Z,10.55
2022-10-25T03:35:08.887Z,10.56
2022-10-25T03:36:08.941Z,10.58
2022-10-25T03:37:08.853Z,10.59
2022-10-25T03:38:08.862Z,10.59
2022-10-25T03:39:08.836Z,10.60
2022-10-25T03:40:08.825Z,10.61
2022-10-25T03:41:08.805Z,10.62
2022-10-25T03:42:08.835Z,10.63
2022-10-25T03:43:08.814Z,10.64
2022-10-25T03:44:08.831Z,10.65
2022-10-25T03:45:08.749Z,10.66
2022-10-25T03:46:08.760Z,10.66
2022-10-25T03:47:08.723Z,10.66
2022-10-25T03:48:08.736Z,10.66
2022-10-25T03:49:08.729Z,10.66
2022-10-25T03:50:08.707Z,10.66
2022-10-25T03:51:08.675Z,10.66
2022-10-25T03:52:08.658Z,10.66
2022-10-25T03:54:08.627Z,10.66
2022-10-25T03:55:08.612Z,10.66
2022-10-25T03:56:08.616Z,10.67
2022-10-25T03:57:08.623Z,10.67
2022-10-25T03:58:08.615Z,10.67
2022-10-25T03:59:08.567Z,10.67
2022-10-25T04:00:08.556Z,10.66
2022-10-25T04:01:08.704Z,10.66
2022-10-25T04:02:08.690Z,10.66
2022-10-25T04:03:08.532Z,10.65
2022-10-25T04:04:08.491Z,10.65
2022-10-25T04:05:08.477Z,10.65
2022-10-25T04:06:08.520Z,10.64
2022-10-25T04:07:08.492Z,10.64
2022-10-25T04:08:08.449Z,10.64
2022-10-25T04:09:08.436Z,10.64
2022-10-25T04:10:08.428Z,10.64
2022-10-25T04:11:08.403Z,10.64
2022-10-25T04:12:08.407Z,10.63
2022-10-25T04:13:08.376Z,10.62
2022-10-25T04:14:08.411Z,10.62
2022-10-25T04:15:08.406Z,10.61
2022-10-25T04:16:08.353Z,10.61
2022-10-25T04:17:08.363Z,10.61
2022-10-25T04:18:08.311Z,10.60
2022-10-25T04:19:08.312Z,10.59
2022-10-25T04:20:08.291Z,10.59
2022-10-25T04:21:08.288Z,10.59
2022-10-25T04:22:08.278Z,10.59
2022-10-25T04:23:08.240Z,10.59
2022-10-25T04:24:08.234Z,10.59
2022-10-25T04:25:08.211Z,10.59
2022-10-25T04:26:08.213Z,10.59
2022-10-25T04:27:08.201Z,10.59
2022-10-25T04:28:08.179Z,10.60
2022-10-25T04:29:08.165Z,10.59
2022-10-25T04:30:08.177Z,10.59
2022-10-25T04:31:08.145Z,10.58
2022-10-25T04:32:08.206Z,10.58
2022-10-25T04:33:08.118Z,10.58
2022-10-25T04:34:08.096Z,10.57
2022-10-25T04:35:08.110Z,10.57
2022-10-25T04:36:08.130Z,10.57
2022-10-25T04:37:08.070Z,10.57
2022-10-25T04:38:08.067Z,10.57
2022-10-25T04:39:08.125Z,10.57
2022-10-25T04:40:08.078Z,10.57
2022-10-25T04:41:08.010Z,10.57
2022-10-25T04:43:07.980Z,10.55
2022-10-25T04:44:07.987Z,10.54
2022-10-25T04:45:07.963Z,10.53
2022-10-25T04:46:07.937Z,10.52
2022-10-25T04:47:07.919Z,10.50
2022-10-25T04:48:07.923Z,10.48
2022-10-25T04:49:07.946Z,10.47
2022-10-25T04:50:07.963Z,10.46
2022-10-25T04:51:07.929Z,10.45
2022-10-25T04:52:07.872Z,10.44
2022-10-25T04:53:07.873Z,10.44
2022-10-25T04:54:07.823Z,10.43
2022-10-25T04:55:07.832Z,10.43
2022-10-25T04:56:07.802Z,10.43
2022-10-25T04:57:07.800Z,10.43
2022-10-25T04:58:07.903Z,10.43
2022-10-25T04:59:07.781Z,10.44
2022-10-25T05:00:07.752Z,10.44
2022-10-25T05:01:07.787Z,10.45
2022-10-25T05:02:07.731Z,10.45
2022-10-25T05:03:10.965Z,10.45
2022-10-25T05:04:07.769Z,10.46
2022-10-25T05:05:07.705Z,10.46
2022-10-25T05:06:08.578Z,10.46
2022-10-25T05:07:08.146Z,10.47
2022-10-25T05:08:07.939Z,10.47
2022-10-25T05:09:07.976Z,10.47
2022-10-25T05:10:07.951Z,10.47
2022-10-25T05:11:07.888Z,10.47
2022-10-25T05:12:07.642Z,10.47
2022-10-25T05:13:09.416Z,10.47
2022-10-25T05:14:07.797Z,10.46
2022-10-25T05:15:08.086Z,10.45
2022-10-25T05:16:07.564Z,10.44
2022-10-25T05:17:07.538Z,10.43
2022-10-25T05:18:07.540Z,10.42
2022-10-25T05:19:08.111Z,10.42
2022-10-25T05:20:08.681Z,10.42
2022-10-25T05:21:08.565Z,10.42
2022-10-25T05:22:07.562Z,10.42
2022-10-25T05:23:08.502Z,10.42
2022-10-25T05:24:07.581Z,10.42
2022-10-25T05:25:07.430Z,10.43
2022-10-25T05:26:07.422Z,10.43
2022-10-25T05:27:07.825Z,10.43
2022-10-25T05:28:07.422Z,10.43
2022-10-25T05:29:10.304Z,10.44
2022-10-25T05:30:09.393Z,10.44
2022-10-25T05:32:07.994Z,10.44
2022-10-25T05:33:07.714Z,10.44
2022-10-25T05:34:07.381Z,10.44
2022-10-25T05:35:07.289Z,10.45
2022-10-25T05:36:07.277Z,10.46
2022-10-25T05:37:07.390Z,10.47
2022-10-25T05:38:07.562Z,10.48
2022-10-25T05:39:07.258Z,10.49
2022-10-25T05:40:07.235Z,10.50
2022-10-25T05:41:07.233Z,10.51
2022-10-25T05:42:07.190Z,10.50
2022-10-25T05:43:07.266Z,10.50
2022-10-25T05:44:07.164Z,10.49
2022-10-25T05:45:07.186Z,10.48
2022-10-25T05:46:07.151Z,10.47
2022-10-25T05:47:07.117Z,10.46
2022-10-25T05:48:07.101Z,10.46
2022-10-25T05:49:07.081Z,10.46
2022-10-25T05:50:07.072Z,10.45
2022-10-25T05:51:20.941Z,10.45
2022-10-25T05:52:07.089Z,10.45
2022-10-25T05:53:07.022Z,10.46
2022-10-25T05:54:07.017Z,10.46
2022-10-25T05:55:07.005Z,10.47
2022-10-25T05:56:06.989Z,10.48
2022-10-25T05:57:06.976Z,10.48
2022-10-25T05:58:06.968Z,10.50
2022-10-25T05:59:06.942Z,10.51
2022-10-25T06:00:06.975Z,10.52
2022-10-25T06:01:07.066Z,10.53
2022-10-25T06:02:07.004Z,10.54
2022-10-25T06:03:06.919Z,10.55
2022-10-25T06:04:06.905Z,10.56
2022-10-25T06:05:06.872Z,10.57
2022-10-25T06:06:06.860Z,10.58
2022-10-25T06:07:06.857Z,10.60
2022-10-25T06:08:06.836Z,10.61
2022-10-25T06:09:06.805Z,10.62
2022-10-25T06:10:10.377Z,10.63
2022-10-25T06:11:06.783Z,10.64
2022-10-25T06:12:09.486Z,10.66
2022-10-25T06:13:06.772Z,10.67
2022-10-25T06:14:06.735Z,10.69
2022-10-25T06:15:06.725Z,10.71
2022-10-25T06:16:06.747Z,10.72
2022-10-25T06:17:06.716Z,10.74
2022-10-25T06:18:06.702Z,10.75
2022-10-25T06:19:06.729Z,10.77
2022-10-25T06:20:06.714Z,10.78
2022-10-25T06:21:06.668Z,10.80
2022-10-25T06:22:06.642Z,10.81
2022-10-25T06:23:09.154Z,10.83
2022-10-25T06:24:06.619Z,10.84
2022-10-25T06:25:06.809Z,10.86
2022-10-25T06:26:06.603Z,10.87
2022-10-25T06:27:06.581Z,10.88
2022-10-25T06:28:06.575Z,10.89
2022-10-25T06:29:06.579Z,10.90
2022-10-25T06:30:06.536Z,10.91
2022-10-25T06:31:06.519Z,10.92
2022-10-25T06:32:06.571Z,10.93
2022-10-25T06:33:06.506Z,10.94
2022-10-25T06:34:06.513Z,10.95
2022-10-25T06:35:06.481Z,10.96
2022-10-25T06:36:06.450Z,10.98
2022-10-25T06:37:06.468Z,10.99
2022-10-25T06:38:06.443Z,11.00
2022-10-25T06:39:07.102Z,11.01
2022-10-25T06:40:06.407Z,11.03
2022-10-25T06:41:06.385Z,11.04
2022-10-25T06:42:06.394Z,11.05
2022-10-25T06:43:06.357Z,11.07
2022-10-25T06:44:07.162Z,11.09
2022-10-25T06:45:06.325Z,11.10
2022-10-25T06:46:06.329Z,11.11
2022-10-25T06:47:17.493Z,11.12
2022-10-25T06:49:17.261Z,12.27
2022-10-25T06:50:18.239Z,11.83
2022-10-25T06:51:18.231Z,11.54
2022-10-25T06:52:18.223Z,11.38
2022-10-25T06:53:18.202Z,11.28
2022-10-25T06:54:18.221Z,11.23
2022-10-25T06:55:18.177Z,11.20
2022-10-25T06:56:18.211Z,11.18
2022-10-25T06:57:18.154Z,11.17
2022-10-25T06:58:18.156Z,11.18
2022-10-25T06:59:18.157Z,11.18
2022-10-25T07:00:18.108Z,11.18
2022-10-25T07:01:18.188Z,11.19
2022-10-25T07:02:18.244Z,11.19
2022-10-25T07:03:18.076Z,11.20
2022-10-25T07:04:18.069Z,11.20
2022-10-25T07:05:18.046Z,11.21
2022-10-25T07:06:18.062Z,11.23
2022-10-25T07:07:18.033Z,11.25
2022-10-25T07:08:18.005Z,11.27
2022-10-25T07:09:17.999Z,11.28
2022-10-25T07:10:17.985Z,11.30
2022-10-25T07:11:17.968Z,11.32
2022-10-25T07:12:17.968Z,11.33
2022-10-25T07:13:17.960Z,11.35
2022-10-25T07:14:17.928Z,11.37
2022-10-25T07:15:20.952Z,11.40
2022-10-25T07:16:17.900Z,11.43
2022-10-25T07:17:17.912Z,11.45
2022-10-25T07:18:17.870Z,11.48
2022-10-25T07:19:17.869Z,11.50
2022-10-25T07:20:17.854Z,11.53
2022-10-25T07:21:17.837Z,11.55
2022-10-25T07:22:17.828Z,11.58
2022-10-25T07:23:17.813Z,11.60
2022-10-25T07:24:17.813Z,11.62
2022-10-25T07:25:17.788Z,11.65
2022-10-25T07:26:17.792Z,11.67
2022-10-25T07:27:17.783Z,11.70
2022-10-25T07:28:17.756Z,11.73
2022-10-25T07:29:17.731Z,11.75
2022-10-25T07:30:17.720Z,11.77
2022-10-25T07:31:17.717Z,11.80
2022-10-25T07:32:17.703Z,11.82
2022-10-25T07:33:17.681Z,11.85
2022-10-25T07:34:17.680Z,11.87
2022-10-25T07:35:17.657Z,11.90
2022-10-25T07:36:17.644Z,11.93
2022-10-25T07:37:17.649Z,11.96
2022-10-25T07:38:17.613Z,11.98
2022-10-25T07:39:17.608Z,12.01
2022-10-25T07:40:17.586Z,12.03
2022-10-25T07:41:17.605Z,12.06
2022-10-25T07:42:17.601Z,12.09
2022-10-25T07:43:17.559Z,12.13
2022-10-25T07:44:21.370Z,12.17
2022-10-25T07:45:20.418Z,12.22
2022-10-25T07:46:17.545Z,12.27
2022-10-25T07:47:17.514Z,12.31
2022-10-25T07:48:17.494Z,12.35
2022-10-25T07:49:17.489Z,12.38
2022-10-25T07:50:17.452Z,12.41
2022-10-25T07:51:17.450Z,12.44
2022-10-25T07:52:17.439Z,12.47
2022-10-25T07:53:17.421Z,12.50
2022-10-25T07:54:17.430Z,12.52
2022-10-25T07:55:17.397Z,12.53
2022-10-25T07:56:20.565Z,12.55
2022-10-25T07:57:17.370Z,12.56
2022-10-25T07:58:17.358Z,12.58
2022-10-25T07:59:17.360Z,12.59
2022-10-25T08:00:17.310Z,12.60
2022-10-25T08:01:17.313Z,12.61
2022-10-25T08:02:17.282Z,12.63
2022-10-25T08:03:17.362Z,12.64
2022-10-25T08:04:17.360Z,12.66
2022-10-25T08:05:17.267Z,12.68
2022-10-25T08:06:17.243Z,12.70
2022-10-25T08:07:17.217Z,12.73
2022-10-25T08:08:17.204Z,12.75
2022-10-25T08:09:36.835Z,12.77
2022-10-25T08:10:17.187Z,12.79
2022-10-25T08:11:17.190Z,12.81
2022-10-25T08:12:21.681Z,12.83
2022-10-25T08:13:17.139Z,12.85
2022-10-25T08:14:17.172Z,12.87
2022-10-25T08:15:17.115Z,12.90
2022-10-25T08:16:17.114Z,12.92
2022-10-25T08:17:17.077Z,12.95
2022-10-25T08:18:17.087Z,12.96
2022-10-25T08:19:17.044Z,12.98
2022-10-25T08:20:17.043Z,12.99
2022-10-25T08:21:17.024Z,13.01
2022-10-25T08:22:17.011Z,13.03
2022-10-25T08:23:17.011Z,13.06
2022-10-25T08:24:17.105Z,13.09
2022-10-25T08:25:16.968Z,13.12
2022-10-25T08:26:16.953Z,13.16
2022-10-25T08:27:16.974Z,13.21
2022-10-25T08:28:16.938Z,13.25
2022-10-25T08:29:16.920Z,13.29
2022-10-25T08:30:16.900Z,13.33
2022-10-25T08:31:16.910Z,13.37
2022-10-25T08:32:16.867Z,13.41
2022-10-25T08:33:16.860Z,13.46
2022-10-25T08:34:16.857Z,13.50
2022-10-25T08:35:16.837Z,13.53
2022-10-25T08:36:16.821Z,13.57
2022-10-25T08:37:16.800Z,13.60
2022-10-25T08:38:16.785Z,13.63
2022-10-25T08:39:16.808Z,13.66
2022-10-25T08:40:16.776Z,13.68
2022-10-25T08:41:16.752Z,13.70
2022-10-25T08:42:16.757Z,13.73
2022-10-25T08:43:16.720Z,13.75
2022-10-25T08:44:16.725Z,13.76
2022-10-25T08:45:16.691Z,13.79
2022-10-25T08:46:16.703Z,13.81
2022-10-25T08:47:16.667Z,13.83
2022-10-25T08:48:16.652Z,13.84
2022-10-25T08:49:16.649Z,13.86
2022-10-25T08:50:16.630Z,13.87
2022-10-25T08:51:16.624Z,13.89
2022-10-25T08:52:17.418Z,13.91
2022-10-25T08:53:16.603Z,13.92
2022-10-25T08:54:16.581Z,13.93
2022-10-25T08:55:16.548Z,13.95
2022-10-25T08:56:17.403Z,13.97
2022-10-25T08:57:16.835Z,13.99
2022-10-25T08:58:16.513Z,14.01
2022-10-25T08:59:16.509Z,14.03
2022-10-25T09:00:16.488Z,14.04
2022-10-25T09:01:16.534Z,14.06
2022-10-25T09:02:16.542Z,14.08
2022-10-25T09:03:16.439Z,14.10
2022-10-25T09:04:16.432Z,14.12
2022-10-25T09:05:16.421Z,14.15
2022-10-25T09:06:16.425Z,14.17
2022-10-25T09:07:16.400Z,14.18
2022-10-25T09:08:16.382Z,14.20
2022-10-25T09:09:16.376Z,14.21
2022-10-25T09:10:16.354Z,14.23
2022-10-25T09:11:16.333Z,14.24
2022-10-25T09:12:16.324Z,14.25
2022-10-25T09:13:16.305Z,14.25
2022-10-25T09:14:16.298Z,14.25
2022-10-25T09:15:16.290Z,14.25
2022-10-25T09:16:16.277Z,14.25
2022-10-25T09:17:16.269Z,14.25
2022-10-25T09:18:16.283Z,14.26
2022-10-25T09:19:16.224Z,14.27
2022-10-25T09:20:16.219Z,14.27
2022-10-25T09:21:22.231Z,14.27
2022-10-25T09:22:16.194Z,14.28
2022-10-25T09:23:16.181Z,14.31
2022-10-25T09:24:16.157Z,14.33
2022-10-25T09:25:16.166Z,14.35
2022-10-25T09:26:16.138Z,14.37
2022-10-25T09:27:16.123Z,14.39
2022-10-25T09:28:16.106Z,14.41
2022-10-25T09:29:16.092Z,14.43
2022-10-25T09:30:16.109Z,14.45
2022-10-25T09:31:16.064Z,14.47
2022-10-25T09:32:16.053Z,14.49
2022-10-25T09:34:16.027Z,14.55
2022-10-25T09:35:16.019Z,14.59
2022-10-25T09:36:15.998Z,14.62
2022-10-25T09:37:15.982Z,14.64
2022-10-25T09:38:15.981Z,14.66
2022-10-25T09:39:16.213Z,14.68
2022-10-25T09:40:15.957Z,14.69
2022-10-25T09:41:15.938Z,14.69
2022-10-25T09:42:15.918Z,14.69
2022-10-25T09:43:15.902Z,14.69
2022-10-25T09:44:15.893Z,14.69
2022-10-25T09:45:15.885Z,14.69
2022-10-25T09:46:15.868Z,14.69
2022-10-25T09:47:15.850Z,14.69
2022-10-25T09:48:15.856Z,14.69
2022-10-25T09:49:15.838Z,14.70
2022-10-25T09:50:15.882Z,14.71
2022-10-25T09:51:15.798Z,14.73
2022-10-25T09:52:15.798Z,14.74
2022-10-25T09:53:18.810Z,14.75
2022-10-25T09:54:15.766Z,14.76
2022-10-25T09:55:15.755Z,14.76
2022-10-25T09:56:15.742Z,14.77
2022-10-25T09:57:16.462Z,14.78
2022-10-25T09:58:15.715Z,14.79
2022-10-25T09:59:15.694Z,14.81
2022-10-25T10:00:15.714Z,14.83
2022-10-25T10:01:15.871Z,14.85
2022-10-25T10:02:15.943Z,14.87
2022-10-25T10:03:15.637Z,14.90
2022-10-25T10:04:15.642Z,14.92
2022-10-25T10:05:15.616Z,14.94
2022-10-25T10:06:15.616Z,14.96
2022-10-25T10:07:15.590Z,14.96
2022-10-25T10:08:15.589Z,14.96
2022-10-25T10:09:15.603Z,14.97
2022-10-25T10:10:15.643Z,14.97
2022-10-25T10:11:15.538Z,14.98
2022-10-25T10:12:15.517Z,14.98
2022-10-25T10:13:15.520Z,14.99
2022-10-25T10:14:15.507Z,15.00
2022-10-25T10:15:15.578Z,15.01
2022-10-25T10:16:15.505Z,15.02
2022-10-25T10:17:15.448Z,15.03
2022-10-25T10:18:15.444Z,15.04
2022-10-25T10:19:15.436Z,15.04
2022-10-25T10:20:15.526Z,15.04
2022-10-25T10:21:15.403Z,15.03
2022-10-25T10:22:15.405Z,15.02
2022-10-25T10:23:15.381Z,15.01
2022-10-25T10:24:15.367Z,15.00
2022-10-25T10:25:15.348Z,15.00
2022-10-25T10:26:15.347Z,15.00
2022-10-25T10:27:15.331Z,15.00
2022-10-25T10:28:15.312Z,14.99
2022-10-25T10:29:17.507Z,14.98
2022-10-25T10:30:15.281Z,14.97
2022-10-25T10:31:15.277Z,14.95
2022-10-25T10:32:15.279Z,14.94
2022-10-25T10:33:15.244Z,14.93
2022-10-25T10:34:15.230Z,14.92
2022-10-25T10:35:15.215Z,14.91
2022-10-25T10:36:15.207Z,14.91
2022-10-25T10:37:15.199Z,14.92
2022-10-25T10:38:15.195Z,14.93
2022-10-25T10:39:15.164Z,14.94
2022-10-25T10:40:15.152Z,14.95
2022-10-25T10:41:15.135Z,14.95
2022-10-25T10:42:15.349Z,14.97
2022-10-25T10:43:15.116Z,14.99
2022-10-25T10:44:15.107Z,15.01
2022-10-25T10:45:15.084Z,15.03
2022-10-25T10:46:15.077Z,15.05
2022-10-25T10:47:15.054Z,15.06
2022-10-25T10:48:15.051Z,15.07
2022-10-25T10:49:15.022Z,15.09
2022-10-25T10:50:15.015Z,15.12
2022-10-25T10:51:38.833Z,15.17
2022-10-25T10:52:15.066Z,15.23
2022-10-25T10:53:14.977Z,15.29
2022-10-25T10:54:14.960Z,15.35
2022-10-25T10:55:14.965Z,15.42
2022-10-25T10:56:14.941Z,15.49
2022-10-25T10:57:16.118Z,15.55
2022-10-25T10:58:15.007Z,15.62
2022-10-25T10:59:14.898Z,15.67
2022-10-25T11:00:14.886Z,15.71
2022-10-25T11:01:14.915Z,15.74
2022-10-25T11:02:15.057Z,15.76
2022-10-25T11:03:14.859Z,15.77
2022-10-25T11:04:14.832Z,15.78
2022-10-25T11:05:14.820Z,15.79
2022-10-25T11:06:14.812Z,15.80
2022-10-25T11:07:14.799Z,15.80
2022-10-25T11:08:14.781Z,15.80
2022-10-25T11:09:14.797Z,15.80
2022-10-25T11:10:14.765Z,15.79
2022-10-25T11:11:14.738Z,15.79
2022-10-25T11:12:14.771Z,15.79
2022-10-25T11:13:14.718Z,15.79
2022-10-25T11:14:14.698Z,15.80
2022-10-25T11:15:14.692Z,15.82
2022-10-25T11:16:14.688Z,15.84
2022-10-25T11:17:14.657Z,15.85
2022-10-25T11:18:14.647Z,15.87
2022-10-25T11:19:14.632Z,15.88
2022-10-25T11:20:14.629Z,15.90
2022-10-25T11:21:14.613Z,15.92
2022-10-25T11:22:14.598Z,15.95
2022-10-25T11:23:14.592Z,15.99
2022-10-25T11:24:14.564Z,16.03
2022-10-25T11:25:14.550Z,16.06
2022-10-25T11:26:14.551Z,16.08
2022-10-25T11:27:14.533Z,16.11
2022-10-25T11:28:14.518Z,16.14
2022-10-25T11:29:14.499Z,16.17
2022-10-25T11:30:14.498Z,16.20
2022-10-25T11:31:14.486Z,16.23
2022-10-25T11:32:14.470Z,16.26
2022-10-25T11:33:14.470Z,16.26
2022-10-25T11:34:14.436Z,16.25
2022-10-25T11:35:14.432Z,16.23
2022-10-25T11:36:14.424Z,16.21
2022-10-25T11:37:14.395Z,16.19
2022-10-25T11:38:14.383Z,16.16
2022-10-25T11:39:14.366Z,16.13
2022-10-25T11:40:14.363Z,16.11
2022-10-25T11:41:14.347Z,16.08
2022-10-25T11:42:14.475Z,16.07
2022-10-25T11:43:14.328Z,16.06
2022-10-25T11:44:14.300Z,16.05
2022-10-25T11:45:14.294Z,16.04
2022-10-25T11:46:14.286Z,16.02
2022-10-25T11:47:14.272Z,16.01
2022-10-25T11:48:14.258Z,15.98
2022-10-25T11:49:14.253Z,15.95
2022-10-25T11:50:14.237Z,15.92
2022-10-25T11:51:14.210Z,15.89
2022-10-25T11:53:14.218Z,15.84
2022-10-25T11:54:14.171Z,15.81
2022-10-25T11:55:14.153Z,15.78
2022-10-25T11:56:14.146Z,15.76
2022-10-25T11:57:14.130Z,15.73
2022-10-25T11:58:14.139Z,15.70
2022-10-25T11:59:14.105Z,15.67
2022-10-25T12:00:14.131Z,15.64
2022-10-25T12:01:14.143Z,15.62
2022-10-25T12:02:14.102Z,15.59
2022-10-25T12:03:14.108Z,15.57
2022-10-25T12:04:14.043Z,15.55
2022-10-25T12:05:14.063Z,15.52
2022-10-25T12:06:14.009Z,15.51
2022-10-25T12:07:14.001Z,15.49
2022-10-25T12:08:13.999Z,15.48
2022-10-25T12:09:13.976Z,15.46
2022-10-25T12:10:13.962Z,15.44
2022-10-25T12:11:16.438Z,15.41
2022-10-25T12:12:13.941Z,15.39
2022-10-25T12:13:13.918Z,15.37
2022-10-25T12:14:13.916Z,15.35
2022-10-25T12:15:13.902Z,15.35
2022-10-25T12:16:13.877Z,15.36
2022-10-25T12:17:13.862Z,15.37
2022-10-25T12:18:13.856Z,15.39
2022-10-25T12:19:13.869Z,15.42
2022-10-25T12:20:13.853Z,15.44
2022-10-25T12:21:13.812Z,15.46
2022-10-25T12:22:13.805Z,15.48
2022-10-25T12:23:13.790Z,15.50
2022-10-25T12:24:13.787Z,15.51
2022-10-25T12:25:13.760Z,15.53
2022-10-25T12:26:13.744Z,15.54
2022-10-25T12:27:13.781Z,15.55
2022-10-25T12:28:13.735Z,15.55
2022-10-25T12:29:13.711Z,15.55
2022-10-25T12:30:13.790Z,15.54
2022-10-25T12:31:13.693Z,15.53
2022-10-25T12:32:13.665Z,15.52
2022-10-25T12:33:13.653Z,15.50
2022-10-25T12:34:13.638Z,15.49
2022-10-25T12:35:13.669Z,15.48
2022-10-25T12:36:13.612Z,15.47
2022-10-25T12:37:13.609Z,15.45
2022-10-25T12:38:13.591Z,15.44
2022-10-25T12:39:13.574Z,15.43
2022-10-25T12:40:13.628Z,15.42
2022-10-25T12:41:13.562Z,15.40
2022-10-25T12:42:13.541Z,15.39
2022-10-25T12:43:13.526Z,15.37
2022-10-25T12:44:13.502Z,15.35
2022-10-25T12:45:13.502Z,15.33
2022-10-25T12:46:13.485Z,15.32
2022-10-25T12:47:13.497Z,15.31
2022-10-25T12:48:19.485Z,15.31
2022-10-25T12:49:14.133Z,15.32
2022-10-25T12:50:13.508Z,15.33
2022-10-25T12:51:16.594Z,15.34
2022-10-25T12:52:13.406Z,15.36
2022-10-25T12:53:13.410Z,15.38
2022-10-25T12:54:13.375Z,15.40
2022-10-25T12:55:13.382Z,15.42
2022-10-25T12:56:13.362Z,15.43
2022-10-25T12:57:13.335Z,15.45
2022-10-25T12:58:13.325Z,15.48
2022-10-25T12:59:13.311Z,15.51
2022-10-25T13:00:13.368Z,15.55